createdAt,value
2022-10-06T00:00:33.549Z,1013.52
2022-10-06T00:01:33.570Z,1013.64
2022-10-06T00:02:33.579Z,1013.54
2022-10-06T00:03:33.498Z,1013.60
2022-10-06T00:04:33.508Z,1013.75
2022-10-06T00:05:33.482Z,1013.69
2022-10-06T00:06:33.489Z,1013.76
2022-10-06T00:07:33.457Z,1013.74
2022-10-06T00:08:33.506Z,1013.83
2022-10-06T00:09:33.443Z,1013.90
2022-10-06T00:10:33.449Z,1013.94
2022-10-06T00:11:33.431Z,1013.98
2022-10-06T00:12:33.653Z,1013.99
2022-10-06T00:13:33.398Z,1014.04
2022-10-06T00:14:33.430Z,1014.04
2022-10-06T00:15:33.407Z,1014.00
2022-10-06T00:16:33.372Z,1013.94
2022-10-06T00:17:33.358Z,1014.00
2022-10-06T00:18:33.357Z,1014.10
2022-10-06T00:19:33.328Z,1014.02
2022-10-06T00:20:33.363Z,1014.12
2022-10-06T00:21:33.307Z,1014.04
2022-10-06T00:22:33.314Z,1014.09
2022-10-06T00:23:33.285Z,1014.14
2022-10-06T00:24:33.288Z,1014.05
2022-10-06T00:25:33.264Z,1014.01
2022-10-06T00:26:33.317Z,1013.91
2022-10-06T00:27:33.240Z,1013.98
2022-10-06T00:28:33.863Z,1013.99
2022-10-06T00:29:33.223Z,1014.04
2022-10-06T00:30:33.223Z,1014.07
2022-10-06T00:31:33.237Z,1014.02
2022-10-06T00:32:33.234Z,1013.95
2022-10-06T00:33:33.193Z,1013.89
2022-10-06T00:34:33.185Z,1013.90
2022-10-06T00:35:33.171Z,1013.92
2022-10-06T00:36:33.212Z,1013.95
2022-10-06T00:37:33.132Z,1013.97
2022-10-06T00:38:33.385Z,1013.96
2022-10-06T00:39:33.112Z,1013.99
2022-10-06T00:40:33.117Z,1013.96
2022-10-06T00:41:33.094Z,1013.94
2022-10-06T00:42:33.351Z,1013.99
2022-10-06T00:43:33.077Z,1014.02
2022-10-06T00:44:33.110Z,1014.00
2022-10-06T00:45:33.063Z,1014.06
2022-10-06T00:46:33.109Z,1014.07
2022-10-06T00:47:33.033Z,1014.00
2022-10-06T00:48:33.037Z,1014.02
2022-10-06T00:49:33.004Z,1014.11
2022-10-06T00:50:33.032Z,1014.18
2022-10-06T00:51:32.982Z,1014.16
2022-10-06T00:52:32.988Z,1014.16
2022-10-06T00:53:32.960Z,1014.15
2022-10-06T00:54:32.963Z,1014.18
2022-10-06T00:55:32.970Z,1014.25
2022-10-06T00:56:32.959Z,1014.25
2022-10-06T00:57:32.923Z,1014.24
2022-10-06T00:58:32.928Z,1014.36
2022-10-06T00:59:32.895Z,1014.34
2022-10-06T01:00:32.905Z,1014.35
2022-10-06T01:01:32.960Z,1014.33
2022-10-06T01:02:32.904Z,1014.34
2022-10-06T01:03:32.853Z,1014.40
2022-10-06T01:04:32.856Z,1014.30
2022-10-06T01:05:32.837Z,1014.34
2022-10-06T01:06:32.866Z,1014.39
2022-10-06T01:07:32.812Z,1014.40
2022-10-06T01:08:32.820Z,1014.37
2022-10-06T01:09:32.797Z,1014.41
2022-10-06T01:10:32.789Z,1014.43
2022-10-06T01:11:32.767Z,1014.45
2022-10-06T01:12:32.796Z,1014.51
2022-10-06T01:13:32.745Z,1014.55
2022-10-06T01:14:32.750Z,1014.58
2022-10-06T01:15:32.812Z,1014.56
2022-10-06T01:16:32.725Z,1014.60
2022-10-06T01:17:32.746Z,1014.62
2022-10-06T01:18:32.707Z,1014.64
2022-10-06T01:19:32.685Z,1014.69
2022-10-06T01:20:32.685Z,1014.68
2022-10-06T01:21:32.660Z,1014.69
2022-10-06T01:22:32.660Z,1014.72
2022-10-06T01:23:32.672Z,1014.75
2022-10-06T01:24:32.642Z,1014.79
2022-10-06T01:25:32.615Z,1014.80
2022-10-06T01:26:32.627Z,1014.78
2022-10-06T01:27:32.592Z,1014.81
2022-10-06T01:28:33.269Z,1014.79
2022-10-06T01:29:32.591Z,1014.85
2022-10-06T01:30:32.577Z,1014.87
2022-10-06T01:31:32.593Z,1014.88
2022-10-06T01:32:32.555Z,1014.88
2022-10-06T01:33:32.531Z,1014.86
2022-10-06T01:34:32.553Z,1014.91
2022-10-06T01:35:32.507Z,1014.91
2022-10-06T01:36:32.514Z,1014.93
2022-10-06T01:37:32.491Z,1014.94
2022-10-06T01:38:32.926Z,1014.95
2022-10-06T01:39:32.468Z,1014.96
2022-10-06T01:40:32.500Z,1014.97
2022-10-06T01:41:32.445Z,1015.01
2022-10-06T01:42:32.445Z,1015.01
2022-10-06T01:43:32.428Z,1015.04
2022-10-06T01:44:32.425Z,1015.03
2022-10-06T01:45:32.399Z,1015.06
2022-10-06T01:46:32.459Z,1015.10
2022-10-06T01:47:32.378Z,1015.10
2022-10-06T01:48:32.847Z,1015.13
2022-10-06T01:49:32.357Z,1015.11
2022-10-06T01:50:32.357Z,1015.12
2022-10-06T01:51:32.334Z,1015.13
2022-10-06T01:52:32.369Z,1015.16
2022-10-06T01:53:32.314Z,1015.18
2022-10-06T01:54:32.325Z,1015.17
2022-10-06T01:55:32.293Z,1015.16
2022-10-06T01:56:32.295Z,1015.19
2022-10-06T01:57:32.271Z,1015.20
2022-10-06T01:58:32.598Z,1015.24
2022-10-06T01:59:32.263Z,1015.24
2022-10-06T02:00:32.263Z,1015.23
2022-10-06T02:01:32.309Z,1015.23
2022-10-06T02:02:32.238Z,1015.22
2022-10-06T02:03:32.211Z,1015.25
2022-10-06T02:04:32.251Z,1015.25
2022-10-06T02:05:32.188Z,1015.27
2022-10-06T02:06:32.274Z,1015.27
2022-10-06T02:07:32.181Z,1015.29
2022-10-06T02:08:32.412Z,1015.30
2022-10-06T02:09:32.342Z,1015.30
2022-10-06T02:10:32.399Z,1015.33
2022-10-06T02:11:32.127Z,1015.34
2022-10-06T02:12:32.128Z,1015.39
2022-10-06T02:13:32.103Z,1015.42
2022-10-06T02:14:32.106Z,1015.44
2022-10-06T02:15:32.077Z,1015.48
2022-10-06T02:16:32.302Z,1015.48
2022-10-06T02:17:32.059Z,1015.46
2022-10-06T02:18:32.540Z,1015.46
2022-10-06T02:19:32.035Z,1015.49
2022-10-06T02:20:32.038Z,1015.56
2022-10-06T02:21:32.012Z,1015.63
2022-10-06T02:22:32.080Z,1015.59
2022-10-06T02:23:31.994Z,1015.60
2022-10-06T02:24:31.995Z,1015.57
2022-10-06T02:25:31.971Z,1015.57
2022-10-06T02:26:31.974Z,1015.60
2022-10-06T02:27:31.952Z,1015.64
2022-10-06T02:28:32.708Z,1015.63
2022-10-06T02:29:31.932Z,1015.68
2022-10-06T02:30:31.929Z,1015.65
2022-10-06T02:31:31.979Z,1015.68
2022-10-06T02:32:31.911Z,1015.67
2022-10-06T02:33:31.884Z,1015.69
2022-10-06T02:34:31.919Z,1015.71
2022-10-06T02:35:31.863Z,1015.75
2022-10-06T02:36:31.868Z,1015.77
2022-10-06T02:37:31.841Z,1015.83
2022-10-06T02:38:32.301Z,1015.83
2022-10-06T02:39:31.820Z,1015.90
2022-10-06T02:40:31.845Z,1015.92
2022-10-06T02:41:31.797Z,1015.92
2022-10-06T02:42:31.799Z,1015.92
2022-10-06T02:43:31.909Z,1015.94
2022-10-06T02:44:31.783Z,1015.98
2022-10-06T02:45:31.758Z,1015.99
2022-10-06T02:46:31.864Z,1016.03
2022-10-06T02:47:31.733Z,1016.04
2022-10-06T02:48:32.204Z,1016.02
2022-10-06T02:49:31.716Z,1016.04
2022-10-06T02:50:31.727Z,1016.05
2022-10-06T02:51:31.696Z,1016.05
2022-10-06T02:52:31.721Z,1016.07
2022-10-06T02:53:31.669Z,1016.09
2022-10-06T02:54:31.673Z,1016.07
2022-10-06T02:55:31.649Z,1016.11
2022-10-06T02:56:31.664Z,1016.11
2022-10-06T02:57:31.628Z,1016.12
2022-10-06T02:58:32.085Z,1016.13
2022-10-06T02:59:31.606Z,1016.20
2022-10-06T03:00:31.609Z,1016.25
2022-10-06T03:01:31.634Z,1016.25
2022-10-06T03:02:31.712Z,1016.31
2022-10-06T03:03:31.564Z,1016.30
2022-10-06T03:04:31.599Z,1016.34
2022-10-06T03:05:31.540Z,1016.38
2022-10-06T03:06:31.545Z,1016.40
2022-10-06T03:07:31.523Z,1016.43
2022-10-06T03:08:31.947Z,1016.43
2022-10-06T03:09:31.499Z,1016.42
2022-10-06T03:10:31.535Z,1016.43
2022-10-06T03:11:31.485Z,1016.48
2022-10-06T03:12:31.478Z,1016.51
2022-10-06T03:13:31.454Z,1016.49
2022-10-06T03:14:31.457Z,1016.50
2022-10-06T03:15:31.436Z,1016.52
2022-10-06T03:16:31.565Z,1016.56
2022-10-06T03:17:31.416Z,1016.60
2022-10-06T03:18:31.905Z,1016.62
2022-10-06T03:19:31.394Z,1016.62
2022-10-06T03:20:31.393Z,1016.64
2022-10-06T03:21:31.375Z,1016.66
2022-10-06T03:22:31.397Z,1016.68
2022-10-06T03:23:31.371Z,1016.78
2022-10-06T03:24:31.351Z,1016.76
2022-10-06T03:25:31.328Z,1016.78
2022-10-06T03:26:31.332Z,1016.77
2022-10-06T03:27:31.318Z,1016.77
2022-10-06T03:28:31.979Z,1016.76
2022-10-06T03:29:31.302Z,1016.80
2022-10-06T03:30:31.272Z,1016.81
2022-10-06T03:31:31.320Z,1016.81
2022-10-06T03:32:31.252Z,1016.80
2022-10-06T03:33:31.253Z,1016.82
2022-10-06T03:34:31.258Z,1016.85
2022-10-06T03:35:31.232Z,1016.85
2022-10-06T03:36:31.218Z,1016.86
2022-10-06T03:37:31.213Z,1016.87
2022-10-06T03:38:31.497Z,1016.86
2022-10-06T03:39:31.192Z,1016.87
2022-10-06T03:40:31.192Z,1016.86
2022-10-06T03:41:31.168Z,1016.86
2022-10-06T03:42:31.143Z,1016.82
2022-10-06T03:43:31.146Z,1016.85
2022-10-06T03:44:31.123Z,1016.87
2022-10-06T03:45:31.122Z,1016.86
2022-10-06T03:46:31.179Z,1016.90
2022-10-06T03:47:31.108Z,1016.95
2022-10-06T03:48:31.695Z,1016.98
2022-10-06T03:49:31.082Z,1016.97
2022-10-06T03:50:31.059Z,1016.96
2022-10-06T03:51:31.069Z,1016.98
2022-10-06T03:52:31.062Z,1016.98
2022-10-06T03:53:31.040Z,1017.00
2022-10-06T03:54:31.016Z,1016.98
2022-10-06T03:55:31.019Z,1016.98
2022-10-06T03:56:30.994Z,1017.00
2022-10-06T03:57:30.997Z,1017.08
2022-10-06T03:58:31.606Z,1017.10
2022-10-06T03:59:30.976Z,1017.18
2022-10-06T04:00:30.963Z,1017.20
2022-10-06T04:01:31.055Z,1017.21
2022-10-06T04:02:30.959Z,1017.23
2022-10-06T04:03:30.921Z,1017.25
2022-10-06T04:04:31.179Z,1017.26
2022-10-06T04:05:30.895Z,1017.31
2022-10-06T04:06:30.901Z,1017.32
2022-10-06T04:07:30.874Z,1017.35
2022-10-06T04:08:31.487Z,1017.34
2022-10-06T04:09:30.853Z,1017.35
2022-10-06T04:10:30.890Z,1017.36
2022-10-06T04:11:30.831Z,1017.35
2022-10-06T04:12:30.835Z,1017.37
2022-10-06T04:13:30.840Z,1017.41
2022-10-06T04:14:30.814Z,1017.45
2022-10-06T04:15:30.793Z,1017.44
2022-10-06T04:16:30.869Z,1017.45
2022-10-06T04:17:30.768Z,1017.44
2022-10-06T04:18:31.204Z,1017.45
2022-10-06T04:19:30.747Z,1017.45
2022-10-06T04:20:30.748Z,1017.49
2022-10-06T04:21:30.725Z,1017.50
2022-10-06T04:22:30.762Z,1017.54
2022-10-06T04:23:30.704Z,1017.59
2022-10-06T04:24:30.709Z,1017.62
2022-10-06T04:25:30.692Z,1017.60
2022-10-06T04:26:30.707Z,1017.64
2022-10-06T04:27:30.666Z,1017.64
2022-10-06T04:28:31.124Z,1017.65
2022-10-06T04:29:30.642Z,1017.70
2022-10-06T04:30:30.641Z,1017.69
2022-10-06T04:31:30.664Z,1017.71
2022-10-06T04:32:30.621Z,1017.71
2022-10-06T04:33:30.595Z,1017.70
2022-10-06T04:34:30.639Z,1017.71
2022-10-06T04:35:30.576Z,1017.71
2022-10-06T04:36:30.577Z,1017.73
2022-10-06T04:37:30.560Z,1017.76
2022-10-06T04:38:30.802Z,1017.77
2022-10-06T04:39:30.535Z,1017.79
2022-10-06T04:40:30.592Z,1017.81
2022-10-06T04:41:30.517Z,1017.79
2022-10-06T04:42:34.924Z,1017.83
2022-10-06T04:43:30.489Z,1017.87
2022-10-06T04:44:30.493Z,1017.90
2022-10-06T04:45:30.565Z,1017.88
2022-10-06T04:46:42.624Z,1017.87
2022-10-06T04:47:30.451Z,1017.89
2022-10-06T04:48:30.902Z,1017.92
2022-10-06T04:49:30.437Z,1017.93
2022-10-06T04:50:30.430Z,1017.99
2022-10-06T04:51:30.406Z,1018.02
2022-10-06T04:52:30.449Z,1018.06
2022-10-06T04:53:30.381Z,1018.06
2022-10-06T04:54:33.693Z,1018.06
2022-10-06T04:55:30.360Z,1018.07
2022-10-06T04:56:30.367Z,1018.07
2022-10-06T04:57:30.340Z,1018.07
2022-10-06T04:58:30.820Z,1018.09
2022-10-06T04:59:30.323Z,1018.13
2022-10-06T05:00:30.332Z,1018.16
2022-10-06T05:01:30.330Z,1018.20
2022-10-06T05:02:30.343Z,1018.22
2022-10-06T05:03:30.310Z,1018.24
2022-10-06T05:04:30.277Z,1018.20
2022-10-06T05:05:30.254Z,1018.24
2022-10-06T05:06:30.256Z,1018.27
2022-10-06T05:07:30.231Z,1018.32
2022-10-06T05:08:30.575Z,1018.35
2022-10-06T05:09:30.231Z,1018.35
2022-10-06T05:10:30.215Z,1018.34
2022-10-06T05:11:30.193Z,1018.35
2022-10-06T05:12:30.190Z,1018.34
2022-10-06T05:13:30.202Z,1018.34
2022-10-06T05:14:30.205Z,1018.37
2022-10-06T05:15:30.146Z,1018.40
2022-10-06T05:16:30.268Z,1018.41
2022-10-06T05:17:30.124Z,1018.45
2022-10-06T05:18:30.580Z,1018.48
2022-10-06T05:19:30.102Z,1018.51
2022-10-06T05:20:30.131Z,1018.54
2022-10-06T05:21:30.082Z,1018.58
2022-10-06T05:22:30.087Z,1018.60
2022-10-06T05:23:30.060Z,1018.61
2022-10-06T05:24:30.062Z,1018.59
2022-10-06T05:25:30.101Z,1018.61
2022-10-06T05:26:30.040Z,1018.62
2022-10-06T05:27:30.019Z,1018.64
2022-10-06T05:28:30.412Z,1018.67
2022-10-06T05:29:29.996Z,1018.68
2022-10-06T05:30:29.998Z,1018.72
2022-10-06T05:31:30.088Z,1018.75
2022-10-06T05:32:35.170Z,1018.75
2022-10-06T05:33:29.966Z,1018.76
2022-10-06T05:34:29.957Z,1018.76
2022-10-06T05:35:29.931Z,1018.78
2022-10-06T05:36:29.961Z,1018.81
2022-10-06T05:37:29.909Z,1018.85
2022-10-06T05:38:30.285Z,1018.83
2022-10-06T05:39:29.892Z,1018.87
2022-10-06T05:40:29.892Z,1018.85
2022-10-06T05:41:29.869Z,1018.88
2022-10-06T05:42:30.027Z,1018.91
2022-10-06T05:43:29.846Z,1018.96
2022-10-06T05:44:29.850Z,1018.99
2022-10-06T05:45:29.823Z,1018.97
2022-10-06T05:46:29.831Z,1019.00
2022-10-06T05:47:29.872Z,1018.97
2022-10-06T05:48:30.268Z,1019.01
2022-10-06T05:49:29.781Z,1019.01
2022-10-06T05:50:29.784Z,1019.01
2022-10-06T05:51:31.162Z,1019.02
2022-10-06T05:52:29.761Z,1019.05
2022-10-06T05:53:29.758Z,1019.08
2022-10-06T05:54:29.742Z,1019.11
2022-10-06T05:55:29.719Z,1019.13
2022-10-06T05:56:29.722Z,1019.15
2022-10-06T05:57:29.696Z,1019.19
2022-10-06T05:58:30.158Z,1019.20
2022-10-06T05:59:29.676Z,1019.23
2022-10-06T06:00:29.680Z,1019.26
2022-10-06T06:01:29.692Z,1019.27
2022-10-06T06:02:29.715Z,1019.29
2022-10-06T06:03:29.633Z,1019.30
2022-10-06T06:04:29.653Z,1019.29
2022-10-06T06:05:29.610Z,1019.31
2022-10-06T06:06:29.617Z,1019.34
2022-10-06T06:07:29.590Z,1019.33
2022-10-06T06:08:29.895Z,1019.37
2022-10-06T06:09:29.604Z,1019.40
2022-10-06T06:10:29.568Z,1019.37
2022-10-06T06:11:29.547Z,1019.38
2022-10-06T06:12:29.546Z,1019.41
2022-10-06T06:13:29.525Z,1019.42
2022-10-06T06:14:29.529Z,1019.47
2022-10-06T06:15:29.522Z,1019.48
2022-10-06T06:16:29.529Z,1019.50
2022-10-06T06:17:29.480Z,1019.54
2022-10-06T06:18:29.823Z,1019.55
2022-10-06T06:19:29.460Z,1019.57
2022-10-06T06:20:29.487Z,1019.60
2022-10-06T06:21:29.438Z,1019.61
2022-10-06T06:22:29.441Z,1019.62
2022-10-06T06:23:29.417Z,1019.63
2022-10-06T06:24:29.417Z,1019.63
2022-10-06T06:25:29.399Z,1019.68
2022-10-06T06:26:29.415Z,1019.70
2022-10-06T06:27:29.395Z,1019.69
2022-10-06T06:28:29.798Z,1019.70
2022-10-06T06:29:30.036Z,1019.73
2022-10-06T06:30:29.358Z,1019.75
2022-10-06T06:31:30.095Z,1019.77
2022-10-06T06:32:29.331Z,1019.78
2022-10-06T06:33:29.489Z,1019.79
2022-10-06T06:34:29.312Z,1019.81
2022-10-06T06:35:29.289Z,1019.81
2022-10-06T06:36:29.290Z,1019.83
2022-10-06T06:37:29.284Z,1019.84
2022-10-06T06:38:29.480Z,1019.87
2022-10-06T06:39:29.245Z,1019.87
2022-10-06T06:40:29.247Z,1019.91
2022-10-06T06:41:29.226Z,1019.92
2022-10-06T06:42:29.261Z,1019.94
2022-10-06T06:43:29.528Z,1019.95
2022-10-06T06:44:29.206Z,1019.98
2022-10-06T06:45:29.181Z,1019.97
2022-10-06T06:46:29.274Z,1019.99
2022-10-06T06:47:29.159Z,1019.99
2022-10-06T06:48:29.464Z,1020.01
2022-10-06T06:49:29.137Z,1020.05
2022-10-06T06:50:29.140Z,1020.05
2022-10-06T06:51:29.116Z,1020.07
2022-10-06T06:52:29.120Z,1020.10
2022-10-06T06:53:29.098Z,1020.13
2022-10-06T06:54:29.133Z,1020.16
2022-10-06T06:55:29.073Z,1020.18
2022-10-06T06:56:29.076Z,1020.21
2022-10-06T06:57:29.050Z,1020.23
2022-10-06T06:58:29.389Z,1020.26
2022-10-06T06:59:29.035Z,1020.25
2022-10-06T07:00:33.816Z,1020.29
2022-10-06T07:01:29.102Z,1020.34
2022-10-06T07:02:29.047Z,1020.30
2022-10-06T07:03:55.515Z,1020.30
2022-10-06T07:04:28.999Z,1020.34
2022-10-06T07:05:28.964Z,1020.35
2022-10-06T07:06:29.364Z,1020.37
2022-10-06T07:07:28.942Z,1020.39
2022-10-06T07:08:29.245Z,1020.39
2022-10-06T07:09:28.922Z,1020.44
2022-10-06T07:10:28.927Z,1020.46
2022-10-06T07:11:28.905Z,1020.47
2022-10-06T07:12:28.932Z,1020.48
2022-10-06T07:13:28.881Z,1020.50
2022-10-06T07:14:28.882Z,1020.52
2022-10-06T07:15:28.864Z,1020.52
2022-10-06T07:16:28.859Z,1020.53
2022-10-06T07:17:28.837Z,1020.54
2022-10-06T07:18:29.308Z,1020.58
2022-10-06T07:19:28.816Z,1020.55
2022-10-06T07:20:28.820Z,1020.56
2022-10-06T07:21:28.800Z,1020.56
2022-10-06T07:22:28.808Z,1020.62
2022-10-06T07:23:28.792Z,1020.59
2022-10-06T07:24:28.808Z,1020.62
2022-10-06T07:25:28.750Z,1020.62
2022-10-06T07:26:28.758Z,1020.65
2022-10-06T07:27:28.741Z,1020.68
2022-10-06T07:28:28.758Z,1020.70
2022-10-06T07:29:28.709Z,1020.73
2022-10-06T07:30:28.739Z,1020.78
2022-10-06T07:31:28.745Z,1020.79
2022-10-06T07:32:28.690Z,1020.80
2022-10-06T07:33:28.668Z,1020.83
2022-10-06T07:34:28.667Z,1020.87
2022-10-06T07:35:28.650Z,1020.87
2022-10-06T07:36:28.686Z,1020.88
2022-10-06T07:37:28.626Z,1020.92
2022-10-06T07:38:28.624Z,1020.94
2022-10-06T07:39:28.600Z,1020.94
2022-10-06T07:40:28.604Z,1021.00
2022-10-06T07:41:28.577Z,1020.97
2022-10-06T07:42:28.623Z,1020.99
2022-10-06T07:43:28.557Z,1021.07
2022-10-06T07:44:28.560Z,1021.05
2022-10-06T07:45:28.537Z,1021.08
2022-10-06T07:46:28.625Z,1021.06
2022-10-06T07:47:28.514Z,1021.06
2022-10-06T07:48:28.549Z,1021.06
2022-10-06T07:49:28.498Z,1021.09
2022-10-06T07:50:28.493Z,1021.12
2022-10-06T07:51:28.470Z,1021.14
2022-10-06T07:52:28.476Z,1021.14
2022-10-06T07:53:28.454Z,1021.16
2022-10-06T07:54:28.508Z,1021.17
2022-10-06T07:55:28.429Z,1021.20
2022-10-06T07:56:28.436Z,1021.21
2022-10-06T07:57:28.408Z,1021.27
2022-10-06T07:58:28.428Z,1021.26
2022-10-06T07:59:28.384Z,1021.28
2022-10-06T08:00:28.599Z,1021.29
2022-10-06T08:01:28.387Z,1021.31
2022-10-06T08:02:30.252Z,1021.28
2022-10-06T08:03:28.423Z,1021.26
2022-10-06T08:04:28.345Z,1021.28
2022-10-06T08:05:28.320Z,1021.28
2022-10-06T08:06:28.357Z,1021.36
2022-10-06T08:07:28.302Z,1021.32
2022-10-06T08:08:28.301Z,1021.29
2022-10-06T08:09:28.278Z,1021.34
2022-10-06T08:10:28.281Z,1021.34
2022-10-06T08:11:28.254Z,1021.35
2022-10-06T08:12:28.292Z,1021.34
2022-10-06T08:13:28.239Z,1021.37
2022-10-06T08:14:28.238Z,1021.36
2022-10-06T08:15:28.211Z,1021.34
2022-10-06T08:16:28.232Z,1021.41
2022-10-06T08:17:28.204Z,1021.40
2022-10-06T08:18:45.302Z,1021.42
2022-10-06T08:19:28.190Z,1021.43
2022-10-06T08:20:28.172Z,1021.47
2022-10-06T08:21:28.161Z,1021.55
2022-10-06T08:22:28.139Z,1021.56
2022-10-06T08:23:28.139Z,1021.52
2022-10-06T08:24:33.886Z,1021.55
2022-10-06T08:25:28.127Z,1021.57
2022-10-06T08:26:28.096Z,1021.60
2022-10-06T08:27:28.098Z,1021.62
2022-10-06T08:28:28.194Z,1021.62
2022-10-06T08:29:28.074Z,1021.63
2022-10-06T08:30:28.077Z,1021.66
2022-10-06T08:31:28.107Z,1021.67
2022-10-06T08:32:28.027Z,1021.69
2022-10-06T08:33:28.037Z,1021.66
2022-10-06T08:34:28.014Z,1021.66
2022-10-06T08:35:28.014Z,1021.66
2022-10-06T08:36:31.303Z,1021.68
2022-10-06T08:37:27.992Z,1021.69
2022-10-06T08:38:27.963Z,1021.75
2022-10-06T08:39:27.974Z,1021.74
2022-10-06T08:40:27.952Z,1021.75
2022-10-06T08:41:27.964Z,1021.77
2022-10-06T08:42:27.956Z,1021.81
2022-10-06T08:43:27.934Z,1021.79
2022-10-06T08:44:27.901Z,1021.80
2022-10-06T08:45:27.904Z,1021.79
2022-10-06T08:46:27.877Z,1021.80
2022-10-06T08:47:27.886Z,1021.80
2022-10-06T08:48:27.908Z,1021.87
2022-10-06T08:49:27.858Z,1021.82
2022-10-06T08:50:27.833Z,1021.90
2022-10-06T08:51:27.837Z,1021.91
2022-10-06T08:52:27.812Z,1021.94
2022-10-06T08:53:27.830Z,1021.92
2022-10-06T08:54:27.815Z,1021.90
2022-10-06T08:55:27.796Z,1021.87
2022-10-06T08:56:27.770Z,1021.89
2022-10-06T08:57:27.774Z,1021.90
2022-10-06T08:58:27.753Z,1021.90
2022-10-06T08:59:27.751Z,1021.90
2022-10-06T09:00:27.763Z,1021.92
2022-10-06T09:01:27.918Z,1021.92
2022-10-06T09:02:27.792Z,1022.08
2022-10-06T09:03:27.706Z,1021.98
2022-10-06T09:04:27.683Z,1022.08
2022-10-06T09:05:27.688Z,1021.99
2022-10-06T09:06:27.692Z,1021.96
2022-10-06T09:07:27.667Z,1022.00
2022-10-06T09:08:27.661Z,1021.98
2022-10-06T09:09:27.708Z,1022.01
2022-10-06T09:10:27.621Z,1022.01
2022-10-06T09:11:27.635Z,1022.03
2022-10-06T09:12:27.629Z,1022.05
2022-10-06T09:13:27.617Z,1022.07
2022-10-06T09:14:27.579Z,1022.06
2022-10-06T09:15:27.582Z,1022.03
2022-10-06T09:16:27.604Z,1022.06
2022-10-06T09:17:27.559Z,1022.07
2022-10-06T09:18:43.500Z,1022.07
2022-10-06T09:19:31.303Z,1022.07
2022-10-06T09:20:27.517Z,1022.13
2022-10-06T09:21:27.518Z,1022.11
2022-10-06T09:22:27.492Z,1022.17
2022-10-06T09:23:27.492Z,1022.16
2022-10-06T09:24:27.520Z,1022.17
2022-10-06T09:25:27.471Z,1022.21
2022-10-06T09:26:27.446Z,1022.21
2022-10-06T09:27:27.447Z,1022.29
2022-10-06T09:28:27.470Z,1022.25
2022-10-06T09:29:27.427Z,1022.28
2022-10-06T09:30:27.431Z,1022.25
2022-10-06T09:31:27.427Z,1022.28
2022-10-06T09:32:27.383Z,1022.26
2022-10-06T09:33:27.386Z,1022.25
2022-10-06T09:34:27.359Z,1022.23
2022-10-06T09:35:27.363Z,1022.26
2022-10-06T09:36:27.552Z,1022.25
2022-10-06T09:37:27.347Z,1022.26
2022-10-06T09:38:27.315Z,1022.29
2022-10-06T09:39:27.321Z,1022.34
2022-10-06T09:40:27.297Z,1022.35
2022-10-06T09:41:27.299Z,1022.31
2022-10-06T09:42:27.297Z,1022.32
2022-10-06T09:43:27.283Z,1022.29
2022-10-06T09:44:27.256Z,1022.32
2022-10-06T09:45:27.255Z,1022.28
2022-10-06T09:46:27.229Z,1022.28
2022-10-06T09:47:27.232Z,1022.27
2022-10-06T09:48:27.245Z,1022.26
2022-10-06T09:49:27.211Z,1022.29
2022-10-06T09:50:27.191Z,1022.32
2022-10-06T09:51:27.189Z,1022.37
2022-10-06T09:52:27.166Z,1022.34
2022-10-06T09:53:27.175Z,1022.35
2022-10-06T09:54:27.188Z,1022.37
2022-10-06T09:55:27.151Z,1022.39
2022-10-06T09:56:27.124Z,1022.45
2022-10-06T09:57:27.126Z,1022.36
2022-10-06T09:58:27.102Z,1022.37
2022-10-06T09:59:27.105Z,1022.38
2022-10-06T10:00:27.103Z,1022.39
2022-10-06T10:01:27.156Z,1022.43
2022-10-06T10:02:27.204Z,1022.40
2022-10-06T10:03:27.080Z,1022.38
2022-10-06T10:04:27.036Z,1022.36
2022-10-06T10:05:27.039Z,1022.35
2022-10-06T10:06:27.037Z,1022.34
2022-10-06T10:07:27.019Z,1022.36
2022-10-06T10:08:27.039Z,1022.41
2022-10-06T10:09:27.036Z,1022.41
2022-10-06T10:10:26.973Z,1022.46
2022-10-06T10:11:26.984Z,1022.41
2022-10-06T10:12:26.983Z,1022.44
2022-10-06T10:13:26.962Z,1022.45
2022-10-06T10:14:26.950Z,1022.45
2022-10-06T10:15:26.930Z,1022.43
2022-10-06T10:16:26.985Z,1022.44
2022-10-06T10:17:26.909Z,1022.46
2022-10-06T10:18:26.909Z,1022.51
2022-10-06T10:19:26.889Z,1022.53
2022-10-06T10:20:26.863Z,1022.48
2022-10-06T10:21:26.891Z,1022.51
2022-10-06T10:22:26.842Z,1022.54
2022-10-06T10:23:31.096Z,1022.52
2022-10-06T10:24:26.846Z,1022.47
2022-10-06T10:25:26.822Z,1022.50
2022-10-06T10:26:26.834Z,1022.54
2022-10-06T10:27:26.813Z,1022.46
2022-10-06T10:28:26.848Z,1022.55
2022-10-06T10:29:30.509Z,1022.59
2022-10-06T10:30:26.767Z,1022.48
2022-10-06T10:31:26.824Z,1022.52
2022-10-06T10:32:26.746Z,1022.51
2022-10-06T10:33:26.743Z,1022.52
2022-10-06T10:34:26.715Z,1022.50
2022-10-06T10:35:26.737Z,1022.51
2022-10-06T10:36:26.691Z,1022.55
2022-10-06T10:37:26.698Z,1022.51
2022-10-06T10:38:26.669Z,1022.51
2022-10-06T10:39:26.672Z,1022.51
2022-10-06T10:40:26.676Z,1022.53
2022-10-06T10:41:26.654Z,1022.52
2022-10-06T10:42:26.625Z,1022.54
2022-10-06T10:43:26.631Z,1022.55
2022-10-06T10:44:26.605Z,1022.57
2022-10-06T10:45:26.608Z,1022.54
2022-10-06T10:46:26.689Z,1022.53
2022-10-06T10:47:26.586Z,1022.51
2022-10-06T10:48:26.563Z,1022.54
2022-10-06T10:49:26.563Z,1022.53
2022-10-06T10:50:26.545Z,1022.54
2022-10-06T10:51:26.570Z,1022.57
2022-10-06T10:52:26.522Z,1022.54
2022-10-06T10:53:26.526Z,1022.52
2022-10-06T10:54:26.496Z,1022.51
2022-10-06T10:55:26.500Z,1022.54
2022-10-06T10:56:26.476Z,1022.56
2022-10-06T10:57:26.502Z,1022.54
2022-10-06T10:58:26.454Z,1022.52
2022-10-06T10:59:26.467Z,1022.51
2022-10-06T11:00:26.432Z,1022.50
2022-10-06T11:01:26.436Z,1022.53
2022-10-06T11:02:26.447Z,1022.51
2022-10-06T11:03:26.425Z,1022.54
2022-10-06T11:04:26.416Z,1022.48
2022-10-06T11:05:28.835Z,1022.58
2022-10-06T11:06:26.370Z,1022.59
2022-10-06T11:07:26.372Z,1022.51
2022-10-06T11:08:26.374Z,1022.48
2022-10-06T11:09:26.349Z,1022.50
2022-10-06T11:10:26.328Z,1022.61
2022-10-06T11:11:26.356Z,1022.56
2022-10-06T11:12:26.303Z,1022.57
2022-10-06T11:13:26.308Z,1022.59
2022-10-06T11:14:26.307Z,1022.58
2022-10-06T11:15:26.287Z,1022.57
2022-10-06T11:16:26.314Z,1022.58
2022-10-06T11:17:26.262Z,1022.56
2022-10-06T11:18:26.240Z,1022.57
2022-10-06T11:19:26.243Z,1022.58
2022-10-06T11:20:26.242Z,1022.54
2022-10-06T11:21:26.231Z,1022.60
2022-10-06T11:22:26.195Z,1022.62
2022-10-06T11:23:26.201Z,1022.62
2022-10-06T11:24:26.178Z,1022.67
2022-10-06T11:25:26.980Z,1022.67
2022-10-06T11:26:26.183Z,1022.68
2022-10-06T11:27:26.156Z,1022.67
2022-10-06T11:28:26.230Z,1022.69
2022-10-06T11:29:26.135Z,1022.69
2022-10-06T11:30:26.113Z,1022.66
2022-10-06T11:31:26.174Z,1022.71
2022-10-06T11:32:26.115Z,1022.71
2022-10-06T11:33:26.094Z,1022.67
2022-10-06T11:34:26.067Z,1022.68
2022-10-06T11:35:26.070Z,1022.64
2022-10-06T11:36:26.050Z,1022.67
2022-10-06T11:37:26.056Z,1022.66
2022-10-06T11:38:26.051Z,1022.63
2022-10-06T11:39:26.028Z,1022.62
2022-10-06T11:40:26.009Z,1022.63
2022-10-06T11:41:26.007Z,1022.60
2022-10-06T11:42:26.082Z,1022.63
2022-10-06T11:43:25.985Z,1022.59
2022-10-06T11:44:25.986Z,1022.52
2022-10-06T11:45:25.968Z,1022.54
2022-10-06T11:46:29.753Z,1022.54
2022-10-06T11:47:35.134Z,1022.52
2022-10-06T11:48:25.924Z,1022.49
2022-10-06T11:49:25.965Z,1022.46
2022-10-06T11:50:26.154Z,1022.46
2022-10-06T11:51:26.571Z,1022.44
2022-10-06T11:52:25.874Z,1022.45
2022-10-06T11:53:25.876Z,1022.45
2022-10-06T11:54:25.855Z,1022.42
2022-10-06T11:55:25.920Z,1022.42
2022-10-06T11:56:25.855Z,1022.38
2022-10-06T11:57:30.530Z,1022.45
2022-10-06T11:58:42.585Z,1022.41
2022-10-06T11:59:25.820Z,1022.31
2022-10-06T12:00:25.794Z,1022.32
2022-10-06T12:01:25.791Z,1022.42
2022-10-06T12:02:26.128Z,1022.39
2022-10-06T12:03:25.871Z,1022.34
2022-10-06T12:04:25.746Z,1022.37
2022-10-06T12:06:25.730Z,1022.48